logo
Search for airport 
image banner adimage banner adimage banner ad
image banner ad

VT57 - Malletts Head

Located in Colchester, United States

ICAO - VT57, IATA -

Data provided by Airmate  

General information

Coordinates: N44°33'38" W73°14'25"
Elevation is 95 feet MSL.
Magnetic variation is -15° East
View others Airports in Vermont

Operational data

Special qualification required
Current time UTC:
Current local time:
Weather at : KBTV - Burlington Intl ( 12 km )
METAR: KBTV 131454Z 21012KT 10SM -RA OVC043 10/01 A2939 RMK AO2 PK WND 17026/1355 RAB32 SLP953 P0000 60000 T01000006 53013
TAF: KBTV 131120Z 1312/1412 19011G20KT P6SM SCT025 OVC050 FM131600 20011KT P6SM VCSH BKN025 FM131800 24010KT P6SM -SHRA OVC025 FM140000 29013G20KT P6SM VCSH OVC015 FM140600 29009KT P6SM BKN025 FM141000 26006KT P6SM SCT110
View NOTAMs / SUP AIP / TFR affecting this airport [VIEW]
Communications frequencies: [VIEW]

Runways:

RWY identifierQFULength (ft)Width (ft)SurfaceLDA (ft)
12W30002000WATER
30W30002000WATER

Airport contact information

Address: Colchester United States

Satellite view of VT57